createdAt,value
2019-05-30T00:00:17.124Z,57.90
2019-05-30T00:02:39.939Z,58.00
2019-05-30T00:05:09.093Z,58.50
2019-05-30T00:07:37.817Z,57.70
2019-05-30T00:10:07.754Z,58.20
2019-05-30T00:12:36.472Z,60.10
2019-05-30T00:15:09.593Z,60.40
2019-05-30T00:17:38.366Z,60.40
2019-05-30T00:20:07.501Z,60.40
2019-05-30T00:22:36.224Z,60.40
2019-05-30T00:25:06.730Z,61.00
2019-05-30T00:27:35.443Z,61.10
2019-05-30T00:30:19.968Z,61.50
2019-05-30T00:32:36.522Z,61.50
2019-05-30T00:35:07.250Z,61.80
2019-05-30T00:37:36.077Z,61.90
2019-05-30T00:40:07.772Z,61.80
2019-05-30T00:42:36.522Z,62.20
2019-05-30T00:45:18.088Z,61.90
2019-05-30T00:47:37.156Z,62.00
2019-05-30T00:50:06.774Z,62.20
2019-05-30T00:52:34.743Z,62.50
2019-05-30T00:55:04.717Z,62.80
2019-05-30T00:57:33.499Z,62.90
2019-05-30T01:00:03.047Z,63.20
2019-05-30T01:02:31.015Z,63.00
2019-05-30T01:05:00.988Z,64.40
2019-05-30T01:07:29.753Z,62.60
2019-05-30T01:09:59.113Z,63.00
2019-05-30T01:12:28.001Z,63.40
2019-05-30T01:14:56.919Z,63.10
2019-05-30T01:17:25.628Z,63.80
2019-05-30T01:19:54.365Z,63.50
2019-05-30T01:22:23.094Z,63.60
2019-05-30T01:24:51.827Z,63.80
2019-05-30T01:27:20.562Z,63.80
2019-05-30T01:29:49.279Z,63.90
2019-05-30T01:32:30.723Z,64.70
2019-05-30T01:34:59.962Z,63.90
2019-05-30T01:37:28.683Z,64.30
2019-05-30T01:39:57.789Z,64.30
2019-05-30T01:42:26.501Z,65.00
2019-05-30T01:44:55.316Z,64.90
2019-05-30T01:47:24.131Z,65.00
2019-05-30T01:49:52.918Z,64.80
2019-05-30T01:52:21.707Z,65.30
2019-05-30T01:54:50.437Z,65.00
2019-05-30T01:57:19.161Z,65.10
2019-05-30T01:59:47.891Z,65.50
2019-05-30T02:02:18.495Z,65.50
2019-05-30T02:04:47.186Z,65.00
2019-05-30T02:07:15.891Z,65.10
2019-05-30T02:09:44.603Z,65.40
2019-05-30T02:12:13.479Z,65.20
2019-05-30T02:14:42.209Z,65.50
2019-05-30T02:17:10.925Z,65.60
2019-05-30T02:19:39.635Z,65.90
2019-05-30T02:22:08.371Z,65.80
2019-05-30T02:24:37.103Z,66.40
2019-05-30T02:27:06.333Z,66.60
2019-05-30T02:29:35.137Z,66.00
2019-05-30T02:32:04.967Z,66.60
2019-05-30T02:34:33.886Z,66.60
2019-05-30T02:37:03.320Z,66.10
2019-05-30T02:39:32.993Z,66.60
2019-05-30T02:42:03.204Z,66.70
2019-05-30T02:44:32.168Z,65.90
2019-05-30T02:47:01.421Z,66.00
2019-05-30T02:49:30.809Z,66.60
2019-05-30T02:51:59.529Z,65.70
2019-05-30T02:54:28.253Z,65.50
2019-05-30T02:56:57.007Z,65.40
2019-05-30T02:59:25.730Z,65.00
2019-05-30T03:02:01.628Z,63.60
2019-05-30T03:04:24.878Z,63.00
2019-05-30T03:06:53.618Z,62.80
2019-05-30T03:09:22.349Z,62.70
2019-05-30T03:11:52.475Z,62.50
2019-05-30T03:14:21.292Z,62.20
2019-05-30T03:16:50.011Z,61.80
2019-05-30T03:19:18.730Z,60.90
2019-05-30T03:21:47.467Z,60.50
2019-05-30T03:24:16.207Z,60.30
2019-05-30T03:26:44.896Z,60.50
2019-05-30T03:29:14.374Z,60.20
2019-05-30T03:31:43.635Z,60.30
2019-05-30T03:34:22.826Z,60.30
2019-05-30T03:36:42.720Z,60.40
2019-05-30T03:39:14.529Z,59.80
2019-05-30T03:41:41.931Z,59.50
2019-05-30T03:44:13.334Z,59.20
2019-05-30T03:46:43.959Z,59.30
2019-05-30T03:49:15.646Z,59.00
2019-05-30T03:51:47.021Z,58.70
2019-05-30T03:54:16.682Z,58.50
2019-05-30T03:56:46.001Z,58.10
2019-05-30T03:59:20.643Z,58.50
2019-05-30T04:02:01.097Z,57.10
2019-05-30T04:04:32.850Z,56.60
2019-05-30T04:07:12.008Z,56.10
2019-05-30T04:09:42.134Z,55.40
2019-05-30T04:12:34.906Z,55.60
2019-05-30T04:15:12.102Z,55.40
2019-05-30T04:17:44.244Z,55.00
2019-05-30T04:20:14.700Z,55.00
2019-05-30T04:22:43.356Z,54.70
2019-05-30T04:25:12.568Z,54.60
2019-05-30T04:27:41.410Z,53.20
2019-05-30T04:30:10.155Z,53.50
2019-05-30T04:32:38.882Z,53.50
2019-05-30T04:35:08.070Z,53.30
2019-05-30T04:37:36.852Z,52.90
2019-05-30T04:40:08.780Z,52.40
2019-05-30T04:42:37.486Z,52.00
2019-05-30T04:45:09.500Z,51.80
2019-05-30T04:47:38.089Z,50.90
2019-05-30T04:50:10.356Z,50.40
2019-05-30T04:52:40.582Z,50.10
2019-05-30T04:55:10.715Z,49.20
2019-05-30T04:57:40.198Z,48.60
2019-05-30T05:00:10.740Z,48.30
2019-05-30T05:02:39.585Z,48.10
2019-05-30T05:05:11.387Z,48.50
2019-05-30T05:07:40.305Z,48.60
2019-05-30T05:10:09.250Z,47.90
2019-05-30T05:12:37.989Z,47.50
2019-05-30T05:15:06.819Z,47.20
2019-05-30T05:17:35.652Z,46.70
2019-05-30T05:20:07.205Z,46.10
2019-05-30T05:22:35.982Z,46.20
2019-05-30T05:25:07.314Z,45.50
2019-05-30T05:27:36.045Z,43.80
2019-05-30T05:30:09.431Z,43.20
2019-05-30T05:32:38.196Z,42.10
2019-05-30T05:35:08.061Z,40.60
2019-05-30T05:37:36.809Z,38.90
2019-05-30T05:40:07.016Z,38.70
2019-05-30T05:42:35.745Z,37.60
2019-05-30T05:45:08.081Z,37.50
2019-05-30T05:47:36.938Z,36.50
2019-05-30T05:50:08.913Z,35.80
2019-05-30T05:52:37.644Z,36.70
2019-05-30T05:55:06.694Z,36.10
2019-05-30T05:57:36.561Z,35.60
2019-05-30T06:00:09.188Z,35.30
2019-05-30T06:02:37.909Z,34.30
2019-05-30T06:05:07.184Z,33.30
2019-05-30T06:07:37.647Z,29.90
2019-05-30T06:10:06.991Z,29.80
2019-05-30T06:12:35.805Z,29.30
2019-05-30T06:15:22.873Z,30.10
2019-05-30T06:17:49.897Z,29.80
2019-05-30T06:20:19.176Z,30.20
2019-05-30T06:22:48.027Z,30.60
2019-05-30T06:25:19.018Z,30.70
2019-05-30T06:27:48.440Z,29.90
2019-05-30T06:30:18.538Z,29.90
2019-05-30T06:32:50.241Z,30.00
2019-05-30T06:35:19.092Z,30.00
2019-05-30T06:37:47.909Z,30.00
2019-05-30T06:40:19.352Z,30.00
2019-05-30T06:42:48.258Z,29.40
2019-05-30T06:45:17.524Z,29.40
2019-05-30T06:47:46.254Z,29.10
2019-05-30T06:50:14.985Z,28.70
2019-05-30T06:52:46.690Z,28.80
2019-05-30T06:55:15.454Z,28.50
2019-05-30T06:57:44.227Z,28.40
2019-05-30T07:00:14.442Z,27.80
2019-05-30T07:02:46.083Z,28.20
2019-05-30T07:05:15.678Z,27.90
2019-05-30T07:07:45.077Z,27.90
2019-05-30T07:10:14.380Z,27.30
2019-05-30T07:12:43.118Z,26.80
2019-05-30T07:15:14.630Z,27.00
2019-05-30T07:17:43.862Z,26.10
2019-05-30T07:20:14.543Z,25.50
2019-05-30T07:22:46.082Z,25.80
2019-05-30T07:25:16.116Z,25.30
2019-05-30T07:27:47.772Z,25.10
2019-05-30T07:30:17.562Z,25.30
2019-05-30T07:32:46.343Z,25.10
2019-05-30T07:35:15.458Z,25.50
2019-05-30T07:37:46.598Z,25.00
2019-05-30T07:40:19.211Z,24.80
2019-05-30T07:42:45.150Z,25.20
2019-05-30T07:45:15.957Z,25.70
2019-05-30T07:47:44.739Z,25.50
2019-05-30T07:50:13.484Z,25.70
2019-05-30T07:52:42.231Z,25.70
2019-05-30T07:55:11.634Z,25.60
2019-05-30T07:57:41.515Z,25.60
2019-05-30T08:00:12.593Z,25.10
2019-05-30T08:02:41.319Z,25.50
2019-05-30T08:05:23.581Z,25.50
2019-05-30T08:07:40.815Z,25.60
2019-05-30T08:10:10.372Z,25.30
2019-05-30T08:12:38.454Z,25.20
2019-05-30T08:15:09.266Z,25.20
2019-05-30T08:17:38.049Z,25.20
2019-05-30T08:20:07.804Z,25.10
2019-05-30T08:22:36.565Z,24.70
2019-05-30T08:25:06.672Z,24.90
2019-05-30T08:27:36.480Z,24.60
2019-05-30T08:30:13.350Z,24.20
2019-05-30T08:32:42.056Z,24.20
2019-05-30T08:35:12.612Z,24.30
2019-05-30T08:37:41.432Z,23.60
2019-05-30T08:40:11.970Z,23.40
2019-05-30T08:42:40.792Z,22.80
2019-05-30T08:45:10.482Z,22.40
2019-05-30T08:47:40.730Z,22.70
2019-05-30T08:50:10.106Z,22.80
2019-05-30T08:52:38.806Z,22.60
2019-05-30T08:55:08.558Z,21.60
2019-05-30T08:57:38.583Z,21.90
2019-05-30T09:00:09.849Z,22.00
2019-05-30T09:02:38.878Z,21.50
2019-05-30T09:05:08.112Z,21.10
2019-05-30T09:07:38.560Z,21.00
2019-05-30T09:10:09.485Z,20.90
2019-05-30T09:12:40.057Z,20.40
2019-05-30T09:15:10.663Z,20.60
2019-05-30T09:17:40.561Z,21.20
2019-05-30T09:20:10.973Z,20.60
2019-05-30T09:22:39.907Z,20.60
2019-05-30T09:25:15.511Z,20.50
2019-05-30T09:27:44.806Z,20.90
2019-05-30T09:30:17.447Z,20.40
2019-05-30T09:32:46.967Z,20.70
2019-05-30T09:35:16.514Z,20.30
2019-05-30T09:37:45.897Z,20.00
2019-05-30T09:40:15.286Z,19.50
2019-05-30T09:42:46.561Z,19.70
2019-05-30T09:45:17.589Z,19.40
2019-05-30T09:47:47.207Z,19.30
2019-05-30T09:50:17.323Z,18.50
2019-05-30T09:52:45.355Z,18.50
2019-05-30T09:55:14.739Z,18.60
2019-05-30T09:57:44.286Z,18.60
2019-05-30T10:00:19.342Z,18.80
2019-05-30T10:02:48.605Z,18.30
2019-05-30T10:05:18.261Z,18.40
2019-05-30T10:07:47.433Z,18.00
2019-05-30T10:10:17.281Z,17.90
2019-05-30T10:12:46.916Z,17.70
2019-05-30T10:15:20.465Z,17.40
2019-05-30T10:17:52.307Z,17.00
2019-05-30T10:20:20.725Z,17.00
2019-05-30T10:22:50.812Z,16.70
2019-05-30T10:25:19.917Z,16.60
2019-05-30T10:27:50.388Z,16.60
2019-05-30T10:30:19.806Z,16.60
2019-05-30T10:32:49.923Z,16.20
2019-05-30T10:35:18.966Z,16.30
2019-05-30T10:37:48.945Z,15.60
2019-05-30T10:40:18.237Z,16.20
2019-05-30T10:42:47.834Z,15.90
2019-05-30T10:45:18.135Z,14.90
2019-05-30T10:47:47.509Z,14.90
2019-05-30T10:50:18.537Z,15.00
2019-05-30T10:52:47.299Z,15.60
2019-05-30T10:55:16.930Z,14.70
2019-05-30T10:57:47.053Z,14.90
2019-05-30T11:00:21.890Z,14.40
2019-05-30T11:02:51.243Z,14.40
2019-05-30T11:05:20.358Z,14.90
2019-05-30T11:08:03.977Z,14.10
2019-05-30T11:10:42.388Z,13.00
2019-05-30T11:13:14.186Z,13.60
2019-05-30T11:15:43.005Z,13.30
2019-05-30T11:18:11.905Z,12.90
2019-05-30T11:20:40.659Z,13.40
2019-05-30T11:23:09.592Z,12.60
2019-05-30T11:25:38.510Z,11.90
2019-05-30T11:28:07.754Z,11.60
2019-05-30T11:30:36.576Z,11.70
2019-05-30T11:33:05.873Z,11.40
2019-05-30T11:35:34.816Z,10.50
2019-05-30T11:38:02.909Z,11.20
2019-05-30T11:40:31.650Z,10.70
2019-05-30T11:43:00.370Z,10.70
2019-05-30T11:45:29.887Z,11.40
2019-05-30T11:47:59.925Z,10.70
2019-05-30T11:50:31.708Z,11.10
2019-05-30T11:53:00.459Z,11.40
2019-05-30T11:55:29.143Z,10.60
2019-05-30T11:57:58.369Z,10.60
2019-05-30T12:00:30.167Z,10.80
2019-05-30T12:03:01.214Z,11.30
2019-05-30T12:05:31.859Z,11.50
2019-05-30T12:08:01.964Z,10.60
2019-05-30T12:10:31.169Z,10.10
2019-05-30T12:13:01.800Z,9.50
2019-05-30T12:15:30.788Z,8.70
2019-05-30T12:17:59.610Z,8.30
2019-05-30T12:20:28.940Z,7.70
2019-05-30T12:22:58.150Z,8.20
2019-05-30T12:25:28.275Z,7.60
2019-05-30T12:27:58.065Z,7.60
2019-05-30T12:30:27.136Z,7.20
2019-05-30T12:32:56.393Z,6.90
2019-05-30T12:35:25.243Z,6.90
2019-05-30T12:37:59.098Z,7.00
2019-05-30T12:40:24.645Z,6.80
2019-05-30T12:42:56.389Z,7.70
2019-05-30T12:45:24.063Z,7.30
2019-05-30T12:47:53.035Z,7.00
2019-05-30T12:50:22.139Z,7.40
2019-05-30T12:52:50.870Z,7.20
2019-05-30T12:55:19.877Z,7.60
2019-05-30T12:57:48.617Z,6.80
2019-05-30T13:00:26.459Z,7.50
2019-05-30T13:02:55.220Z,7.00
2019-05-30T13:05:24.086Z,7.00
2019-05-30T13:07:52.947Z,6.80
2019-05-30T13:10:22.454Z,6.80
2019-05-30T13:12:51.212Z,6.60
2019-05-30T13:15:20.222Z,6.40
2019-05-30T13:17:48.972Z,6.60
2019-05-30T13:20:17.883Z,6.60
2019-05-30T13:22:46.805Z,6.80
2019-05-30T13:25:17.530Z,7.60
2019-05-30T13:27:46.671Z,6.40
2019-05-30T13:30:17.399Z,7.30
2019-05-30T13:32:46.119Z,6.50
2019-05-30T13:35:15.191Z,6.80
2019-05-30T13:37:44.093Z,6.60
2019-05-30T13:40:25.036Z,6.10
2019-05-30T13:42:44.653Z,6.30
2019-05-30T13:45:13.878Z,6.40
2019-05-30T13:47:42.625Z,6.20
2019-05-30T13:50:14.319Z,6.60
2019-05-30T13:52:43.157Z,6.60
2019-05-30T13:55:13.545Z,6.60
2019-05-30T13:57:42.450Z,6.50
2019-05-30T14:00:13.269Z,5.80
2019-05-30T14:02:42.002Z,6.50
2019-05-30T14:05:10.810Z,5.90
2019-05-30T14:07:39.609Z,5.50
2019-05-30T14:10:09.032Z,5.10
2019-05-30T14:12:37.763Z,5.40
2019-05-30T14:15:13.997Z,5.50
2019-05-30T14:17:41.529Z,5.20
2019-05-30T14:20:11.942Z,5.20
2019-05-30T14:22:41.115Z,5.00
2019-05-30T14:25:11.608Z,6.30
2019-05-30T14:27:40.603Z,4.80
2019-05-30T14:30:11.109Z,5.10
2019-05-30T14:32:39.863Z,5.10
2019-05-30T14:35:11.722Z,5.20
2019-05-30T14:37:39.980Z,5.20
2019-05-30T14:40:11.058Z,5.50
2019-05-30T14:42:51.801Z,5.00
2019-05-30T14:45:20.554Z,4.80
2019-05-30T14:47:50.164Z,4.60
2019-05-30T14:50:21.247Z,4.30
2019-05-30T14:52:51.999Z,4.50
2019-05-30T14:55:21.772Z,4.70
2019-05-30T14:57:58.039Z,4.60
2019-05-30T15:00:24.887Z,4.70
2019-05-30T15:02:54.781Z,5.00
2019-05-30T15:05:23.807Z,4.90
2019-05-30T15:07:57.336Z,4.60
2019-05-30T15:10:26.769Z,4.60
2019-05-30T15:12:55.571Z,5.50
2019-05-30T15:15:24.338Z,4.90
2019-05-30T15:17:53.088Z,5.40
2019-05-30T15:20:22.520Z,4.60
2019-05-30T15:22:52.953Z,4.60
2019-05-30T15:25:21.688Z,4.50
2019-05-30T15:27:51.445Z,4.00
2019-05-30T15:30:20.221Z,4.30
2019-05-30T15:32:50.769Z,4.60
2019-05-30T15:35:19.548Z,4.80
2019-05-30T15:37:50.363Z,4.90
2019-05-30T15:40:20.599Z,5.10
2019-05-30T15:42:53.163Z,5.90
2019-05-30T15:45:21.854Z,6.80
2019-05-30T15:47:50.560Z,8.10
2019-05-30T15:50:19.501Z,9.30
2019-05-30T15:52:48.248Z,10.10
2019-05-30T15:55:17.485Z,10.40
2019-05-30T15:57:46.302Z,11.20
2019-05-30T16:00:15.964Z,11.60
2019-05-30T16:02:48.673Z,12.90
2019-05-30T16:05:18.562Z,12.50
2019-05-30T16:07:47.418Z,11.70
2019-05-30T16:10:20.981Z,10.10
2019-05-30T16:12:49.814Z,9.40
2019-05-30T16:15:19.709Z,9.00
2019-05-30T16:17:50.803Z,7.90
2019-05-30T16:20:22.598Z,8.30
2019-05-30T16:22:52.885Z,9.00
2019-05-30T16:25:30.166Z,7.50
2019-05-30T16:27:58.970Z,7.90
2019-05-30T16:30:27.676Z,7.70
2019-05-30T16:33:01.813Z,7.00
2019-05-30T16:35:31.663Z,6.40
2019-05-30T16:38:00.407Z,6.60
2019-05-30T16:40:30.379Z,6.20
2019-05-30T16:43:00.707Z,6.30
2019-05-30T16:45:31.703Z,6.40
2019-05-30T16:48:05.020Z,6.40
2019-05-30T16:50:34.641Z,6.70
2019-05-30T16:53:04.033Z,7.60
2019-05-30T16:55:36.046Z,8.10
2019-05-30T16:58:06.809Z,7.90
2019-05-30T17:00:36.496Z,7.50
2019-05-30T17:03:06.601Z,8.00
2019-05-30T17:05:35.403Z,8.10
2019-05-30T17:08:05.342Z,7.90
2019-05-30T17:10:35.945Z,8.10
2019-05-30T17:13:04.667Z,7.80
2019-05-30T17:15:35.845Z,9.20
2019-05-30T17:18:04.804Z,9.80
2019-05-30T17:20:35.140Z,10.30
2019-05-30T17:23:03.929Z,10.70
2019-05-30T17:25:33.296Z,11.00
2019-05-30T17:28:05.043Z,11.20
2019-05-30T17:30:34.894Z,11.10
2019-05-30T17:33:03.610Z,11.30
2019-05-30T17:35:33.602Z,12.50
2019-05-30T17:38:02.340Z,12.80
2019-05-30T17:40:43.684Z,12.60
2019-05-30T17:43:00.656Z,13.00
2019-05-30T17:45:29.463Z,14.60
2019-05-30T17:48:07.707Z,14.90
2019-05-30T17:50:29.771Z,16.10
2019-05-30T17:52:58.808Z,16.90
2019-05-30T17:55:28.043Z,17.80
2019-05-30T17:57:56.794Z,18.20
2019-05-30T18:00:26.465Z,18.80
2019-05-30T18:02:55.384Z,18.90
2019-05-30T18:05:24.618Z,19.50
2019-05-30T18:07:53.342Z,19.80
2019-05-30T18:10:22.772Z,19.70
2019-05-30T18:12:51.502Z,20.10
2019-05-30T18:15:20.981Z,20.50
2019-05-30T18:17:50.656Z,21.00
2019-05-30T18:20:19.484Z,21.30
2019-05-30T18:22:48.286Z,21.70
2019-05-30T18:25:18.623Z,22.10
2019-05-30T18:27:47.445Z,21.90
2019-05-30T18:30:16.558Z,21.90
2019-05-30T18:32:45.281Z,22.10
2019-05-30T18:35:14.119Z,22.70
2019-05-30T18:37:43.030Z,22.70
2019-05-30T18:40:12.359Z,23.10
2019-05-30T18:42:40.328Z,23.10
2019-05-30T18:45:11.057Z,23.50
2019-05-30T18:47:40.525Z,23.60
2019-05-30T18:50:09.746Z,23.80
2019-05-30T18:52:41.164Z,24.20
2019-05-30T18:55:09.867Z,24.30
2019-05-30T18:57:38.596Z,24.50
2019-05-30T19:00:11.798Z,24.80
2019-05-30T19:02:40.393Z,24.90
2019-05-30T19:05:09.232Z,25.60
2019-05-30T19:07:37.962Z,26.00
2019-05-30T19:10:08.923Z,25.60
2019-05-30T19:12:38.895Z,25.90
2019-05-30T19:15:08.949Z,26.00
2019-05-30T19:17:37.746Z,26.30
2019-05-30T19:20:10.910Z,26.60
2019-05-30T19:22:41.567Z,26.70
2019-05-30T19:25:10.126Z,26.90
2019-05-30T19:27:38.845Z,27.10
2019-05-30T19:30:09.031Z,27.50
2019-05-30T19:32:37.805Z,27.70
2019-05-30T19:35:08.617Z,28.10
2019-05-30T19:37:38.148Z,28.20
2019-05-30T19:40:08.906Z,28.80
2019-05-30T19:42:37.807Z,28.80
2019-05-30T19:45:08.711Z,28.90
2019-05-30T19:47:38.606Z,29.10
2019-05-30T19:50:08.669Z,29.20
2019-05-30T19:52:37.491Z,29.50
2019-05-30T19:55:07.267Z,29.80
2019-05-30T19:57:37.954Z,30.00
2019-05-30T20:00:08.808Z,30.00
2019-05-30T20:02:38.376Z,30.20
2019-05-30T20:05:07.963Z,30.70
2019-05-30T20:07:36.904Z,30.60
2019-05-30T20:10:09.093Z,30.60
2019-05-30T20:12:38.929Z,30.60
2019-05-30T20:15:11.323Z,30.40
2019-05-30T20:17:40.081Z,30.40
2019-05-30T20:20:09.296Z,30.40
2019-05-30T20:22:38.277Z,30.90
2019-05-30T20:25:09.441Z,31.30
2019-05-30T20:27:38.941Z,31.30
2019-05-30T20:30:10.096Z,31.40
2019-05-30T20:32:38.950Z,31.70
2019-05-30T20:35:08.310Z,31.80
2019-05-30T20:37:37.038Z,32.20
2019-05-30T20:40:08.046Z,32.40
2019-05-30T20:42:36.864Z,32.40
2019-05-30T20:45:09.727Z,32.60
2019-05-30T20:47:38.711Z,33.00
2019-05-30T20:50:08.430Z,33.40
2019-05-30T20:52:39.992Z,33.90
2019-05-30T20:55:06.944Z,34.20
2019-05-30T20:57:36.249Z,34.40
2019-05-30T21:00:10.124Z,34.60
2019-05-30T21:02:40.847Z,35.20
2019-05-30T21:05:10.223Z,35.50
2019-05-30T21:07:41.911Z,36.10
2019-05-30T21:10:11.317Z,36.40
2019-05-30T21:12:44.417Z,36.50
2019-05-30T21:15:11.691Z,36.50
2019-05-30T21:17:41.723Z,36.50
2019-05-30T21:20:11.743Z,36.90
2019-05-30T21:22:40.704Z,37.20
2019-05-30T21:25:09.735Z,37.30
2019-05-30T21:27:39.045Z,37.40
2019-05-30T21:30:07.320Z,37.40
2019-05-30T21:32:37.197Z,38.00
2019-05-30T21:35:07.399Z,37.70
2019-05-30T21:37:39.983Z,38.20
2019-05-30T21:40:09.815Z,38.40
2019-05-30T21:42:55.629Z,39.20
2019-05-30T21:45:09.206Z,39.40
2019-05-30T21:47:44.756Z,39.40
2019-05-30T21:50:14.233Z,39.50
2019-05-30T21:52:43.667Z,39.90
2019-05-30T21:55:12.759Z,40.30
2019-05-30T21:57:41.902Z,40.50
2019-05-30T22:00:20.959Z,40.50
2019-05-30T22:02:54.454Z,41.20
2019-05-30T22:05:24.056Z,41.40
2019-05-30T22:07:51.933Z,41.50
2019-05-30T22:10:20.656Z,42.10
2019-05-30T22:12:49.705Z,42.40
2019-05-30T22:15:18.798Z,42.20
2019-05-30T22:17:47.869Z,42.20
2019-05-30T22:20:16.857Z,42.30
2019-05-30T22:22:46.173Z,42.10
2019-05-30T22:25:15.022Z,42.40
2019-05-30T22:27:44.485Z,42.60
2019-05-30T22:30:13.815Z,42.70
2019-05-30T22:32:42.695Z,43.20
2019-05-30T22:35:11.764Z,43.60
2019-05-30T22:37:40.530Z,43.80
2019-05-30T22:40:10.324Z,43.90
2019-05-30T22:42:39.048Z,44.10
2019-05-30T22:45:08.081Z,44.10
2019-05-30T22:47:36.861Z,44.90
2019-05-30T22:50:06.252Z,44.10
2019-05-30T22:52:34.994Z,44.50
2019-05-30T22:55:04.637Z,44.50
2019-05-30T22:57:32.517Z,44.60
2019-05-30T23:00:01.324Z,45.50
2019-05-30T23:02:30.141Z,44.80
2019-05-30T23:04:58.863Z,44.90
2019-05-30T23:07:27.578Z,44.80
2019-05-30T23:09:56.372Z,44.50
2019-05-30T23:12:25.091Z,43.90
2019-05-30T23:14:54.317Z,43.70
2019-05-30T23:17:23.139Z,43.50
2019-05-30T23:19:53.186Z,43.40
2019-05-30T23:22:22.134Z,43.40
2019-05-30T23:24:52.258Z,43.50
2019-05-30T23:27:21.355Z,43.50
2019-05-30T23:29:50.182Z,43.40
2019-05-30T23:32:19.133Z,43.40
2019-05-30T23:34:48.199Z,43.40
2019-05-30T23:37:16.978Z,43.40
2019-05-30T23:39:45.684Z,43.40
2019-05-30T23:42:14.398Z,43.70
2019-05-30T23:44:43.142Z,44.00
2019-05-30T23:47:12.013Z,44.50
2019-05-30T23:49:40.770Z,44.70
2019-05-30T23:52:09.558Z,45.00
2019-05-30T23:54:38.276Z,45.30
2019-05-30T23:57:07.003Z,45.40
2019-05-30T23:59:35.739Z,45.40
